createdAt,value
2024-02-29T00:00:18.157Z,3.65
2024-02-29T00:02:45.845Z,3.60
2024-02-29T00:05:13.959Z,3.59
2024-02-29T00:07:42.180Z,3.52
2024-02-29T00:10:10.740Z,3.45
2024-02-29T00:12:39.804Z,3.32
2024-02-29T00:15:08.792Z,3.37
2024-02-29T00:17:37.904Z,3.36
2024-02-29T00:20:10.353Z,3.33
2024-02-29T00:22:39.018Z,3.35
2024-02-29T00:25:07.476Z,3.34
2024-02-29T00:27:35.353Z,3.34
2024-02-29T00:30:03.076Z,3.37
2024-02-29T00:32:30.744Z,3.34
2024-02-29T00:34:59.790Z,3.41
2024-02-29T00:37:29.415Z,3.39
2024-02-29T00:39:57.324Z,3.34
2024-02-29T00:42:25.127Z,3.28
2024-02-29T00:44:52.761Z,3.29
2024-02-29T00:47:23.048Z,3.31
2024-02-29T00:49:50.774Z,3.30
2024-02-29T00:52:19.801Z,3.28
2024-02-29T00:54:47.499Z,3.29
2024-02-29T00:57:15.185Z,3.36
2024-02-29T00:59:41.871Z,3.38
2024-02-29T01:02:09.513Z,3.36
2024-02-29T01:04:37.197Z,3.32
2024-02-29T01:07:04.984Z,3.35
2024-02-29T01:09:34.165Z,3.40
2024-02-29T01:12:01.963Z,3.47
2024-02-29T01:14:29.681Z,3.44
2024-02-29T01:16:58.073Z,3.43
2024-02-29T01:19:25.721Z,3.50
2024-02-29T01:21:53.493Z,3.46
2024-02-29T01:24:21.174Z,3.45
2024-02-29T01:26:50.150Z,3.46
2024-02-29T01:29:18.582Z,3.43
2024-02-29T01:31:46.293Z,3.20
2024-02-29T01:34:14.145Z,3.51
2024-02-29T01:36:44.925Z,3.57
2024-02-29T01:39:12.580Z,3.53
2024-02-29T01:41:40.289Z,3.53
2024-02-29T01:44:09.261Z,3.46
2024-02-29T01:46:36.919Z,3.50
2024-02-29T01:49:04.864Z,3.59
2024-02-29T01:51:33.509Z,3.60
2024-02-29T01:54:01.192Z,3.64
2024-02-29T01:56:29.231Z,3.62
2024-02-29T01:58:57.883Z,3.64
2024-02-29T02:01:27.264Z,3.62
2024-02-29T02:03:55.014Z,3.60
2024-02-29T02:06:22.748Z,3.63
2024-02-29T02:08:50.437Z,3.63
2024-02-29T02:11:18.204Z,3.63
2024-02-29T02:13:45.957Z,3.62
2024-02-29T02:16:14.082Z,3.47
2024-02-29T02:18:43.162Z,3.65
2024-02-29T02:21:12.218Z,3.65
2024-02-29T02:23:40.048Z,3.67
2024-02-29T02:26:07.687Z,3.64
2024-02-29T02:28:35.339Z,3.60
2024-02-29T02:31:03.261Z,3.63
2024-02-29T02:33:31.027Z,3.59
2024-02-29T02:35:58.826Z,3.54
2024-02-29T02:38:28.078Z,3.53
2024-02-29T02:40:55.708Z,3.55
2024-02-29T02:43:23.444Z,3.61
2024-02-29T02:45:51.161Z,3.58
2024-02-29T02:48:18.846Z,3.57
2024-02-29T02:50:46.576Z,3.55
2024-02-29T02:53:14.274Z,3.43
2024-02-29T02:55:43.311Z,3.45
2024-02-29T02:58:11.204Z,3.39
2024-02-29T03:00:39.035Z,3.26
2024-02-29T03:03:06.830Z,3.42
2024-02-29T03:05:34.454Z,3.41
2024-02-29T03:08:02.671Z,3.47
2024-02-29T03:10:30.300Z,3.42
2024-02-29T03:12:59.374Z,3.41
2024-02-29T03:15:27.188Z,3.41
2024-02-29T03:17:57.145Z,3.37
2024-02-29T03:20:24.910Z,3.41
2024-02-29T03:22:52.865Z,3.37
2024-02-29T03:25:21.227Z,3.38
2024-02-29T03:27:49.700Z,3.36
2024-02-29T03:30:19.272Z,3.44
2024-02-29T03:32:47.132Z,3.35
2024-02-29T03:35:14.909Z,3.34
2024-02-29T03:37:42.546Z,3.47
2024-02-29T03:40:11.348Z,3.43
2024-02-29T03:42:40.834Z,3.43
2024-02-29T03:45:09.543Z,3.39
2024-02-29T03:47:38.666Z,3.33
2024-02-29T03:50:07.521Z,3.32
2024-02-29T03:52:35.174Z,3.32
2024-02-29T03:55:03.155Z,3.34
2024-02-29T03:57:30.847Z,3.32
2024-02-29T03:59:58.525Z,3.42
2024-02-29T04:02:26.283Z,3.43
2024-02-29T04:04:55.630Z,3.47
2024-02-29T04:07:23.397Z,3.38
2024-02-29T04:09:55.708Z,3.49
2024-02-29T04:12:23.627Z,3.48
2024-02-29T04:14:51.320Z,3.42
2024-02-29T04:17:19.250Z,3.44
2024-02-29T04:19:47.054Z,3.45
2024-02-29T04:22:17.052Z,3.39
2024-02-29T04:24:44.906Z,3.44
2024-02-29T04:27:12.670Z,3.38
2024-02-29T04:29:40.318Z,3.46
2024-02-29T04:32:08.246Z,3.51
2024-02-29T04:34:35.933Z,3.53
2024-02-29T04:37:04.231Z,3.46
2024-02-29T04:39:33.277Z,3.43
2024-02-29T04:42:00.958Z,3.50
2024-02-29T04:44:29.728Z,3.45
2024-02-29T04:46:57.394Z,3.50
2024-02-29T04:49:25.070Z,3.40
2024-02-29T04:51:52.750Z,3.40
2024-02-29T04:54:20.483Z,3.41
2024-02-29T04:56:49.483Z,3.41
2024-02-29T04:59:17.311Z,3.41
2024-02-29T05:01:46.229Z,3.37
2024-02-29T05:04:14.129Z,3.34
2024-02-29T05:06:41.867Z,3.49
2024-02-29T05:09:09.826Z,3.51
2024-02-29T05:11:39.684Z,3.52
2024-02-29T05:14:09.071Z,3.49
2024-02-29T05:16:36.865Z,3.52
2024-02-29T05:19:04.704Z,3.46
2024-02-29T05:21:32.394Z,3.45
2024-02-29T05:24:00.063Z,3.39
2024-02-29T05:26:27.714Z,3.45
2024-02-29T05:28:56.833Z,3.54
2024-02-29T05:31:26.052Z,3.52
2024-02-29T05:33:53.779Z,3.54
2024-02-29T05:36:21.465Z,3.51
2024-02-29T05:38:51.649Z,3.54
2024-02-29T05:41:19.721Z,3.32
2024-02-29T05:43:47.524Z,3.47
2024-02-29T05:46:15.599Z,3.42
2024-02-29T05:48:44.797Z,3.41
2024-02-29T05:51:12.701Z,3.37
2024-02-29T05:53:40.627Z,3.39
2024-02-29T05:56:08.278Z,3.42
2024-02-29T05:58:35.921Z,3.48
2024-02-29T06:01:04.355Z,3.43
2024-02-29T06:03:32.358Z,3.46
2024-02-29T06:06:02.340Z,3.43
2024-02-29T06:08:30.263Z,3.39
2024-02-29T06:10:58.402Z,3.44
2024-02-29T06:13:26.227Z,3.45
2024-02-29T06:15:53.925Z,3.42
2024-02-29T06:18:21.623Z,3.42
2024-02-29T06:20:49.270Z,3.46
2024-02-29T06:23:18.303Z,3.52
2024-02-29T06:25:45.950Z,3.41
2024-02-29T06:28:13.800Z,3.43
2024-02-29T06:30:41.570Z,3.46
2024-02-29T06:33:09.308Z,3.40
2024-02-29T06:35:37.046Z,3.02
2024-02-29T06:38:04.820Z,3.43
2024-02-29T06:40:33.821Z,3.49
2024-02-29T06:43:01.541Z,3.51
2024-02-29T06:45:29.249Z,3.50
2024-02-29T06:47:58.378Z,3.44
2024-02-29T06:50:26.120Z,3.51
2024-02-29T06:52:55.046Z,3.54
2024-02-29T06:55:22.990Z,3.71
2024-02-29T06:57:52.324Z,3.81
2024-02-29T07:00:20.710Z,3.91
2024-02-29T07:02:48.379Z,3.85
2024-02-29T07:05:16.225Z,3.90
2024-02-29T07:07:45.969Z,3.99
2024-02-29T07:10:14.139Z,4.08
2024-02-29T07:12:42.522Z,4.12
2024-02-29T07:15:12.167Z,4.15
2024-02-29T07:17:39.875Z,4.25
2024-02-29T07:20:14.175Z,4.28
2024-02-29T07:22:42.885Z,4.43
2024-02-29T07:25:11.388Z,4.43
2024-02-29T07:27:40.209Z,4.33
2024-02-29T07:30:08.587Z,4.69
2024-02-29T07:32:37.918Z,4.79
2024-02-29T07:35:06.164Z,4.75
2024-02-29T07:37:34.002Z,4.87
2024-02-29T07:40:02.296Z,4.89
2024-02-29T07:42:30.223Z,4.96
2024-02-29T07:44:58.437Z,5.00
2024-02-29T07:47:26.124Z,5.10
2024-02-29T07:49:55.156Z,5.17
2024-02-29T07:52:22.860Z,5.23
2024-02-29T07:54:50.895Z,5.35
2024-02-29T07:57:18.684Z,5.42
2024-02-29T07:59:46.845Z,5.59
2024-02-29T08:02:14.680Z,5.29
2024-02-29T08:04:44.986Z,5.77
2024-02-29T08:07:14.258Z,5.89
2024-02-29T08:09:42.276Z,6.01
2024-02-29T08:12:10.249Z,6.14
2024-02-29T08:14:37.954Z,6.29
2024-02-29T08:17:06.824Z,6.41
2024-02-29T08:19:34.506Z,6.58
2024-02-29T08:22:02.170Z,6.59
2024-02-29T08:24:31.215Z,6.76
2024-02-29T08:26:58.890Z,6.91
2024-02-29T08:29:26.570Z,6.99
2024-02-29T08:31:54.525Z,7.23
2024-02-29T08:34:22.295Z,7.35
2024-02-29T08:36:51.084Z,7.43
2024-02-29T08:39:18.900Z,7.62
2024-02-29T08:41:48.410Z,7.52
2024-02-29T08:44:16.982Z,7.61
2024-02-29T08:46:44.878Z,7.70
2024-02-29T08:49:12.622Z,7.73
2024-02-29T08:51:40.356Z,7.72
2024-02-29T08:54:10.519Z,7.79
2024-02-29T08:56:38.420Z,7.72
2024-02-29T08:59:07.454Z,7.76
2024-02-29T09:01:35.211Z,7.87
2024-02-29T09:04:03.059Z,7.90
2024-02-29T09:06:40.720Z,8.02
2024-02-29T09:09:09.503Z,8.33
2024-02-29T09:11:37.434Z,8.60
2024-02-29T09:14:05.208Z,8.63
2024-02-29T09:16:35.014Z,8.72
2024-02-29T09:19:04.368Z,8.87
2024-02-29T09:21:31.368Z,8.98
2024-02-29T09:23:59.274Z,9.08
2024-02-29T09:26:27.048Z,9.08
2024-02-29T09:28:55.348Z,9.24
2024-02-29T09:31:23.169Z,9.13
2024-02-29T09:33:54.623Z,9.09
2024-02-29T09:36:22.558Z,9.19
2024-02-29T09:38:50.267Z,9.17
2024-02-29T09:41:32.565Z,9.30
2024-02-29T09:44:07.498Z,9.16
2024-02-29T09:46:35.183Z,9.24
2024-02-29T09:49:05.464Z,9.36
2024-02-29T09:51:34.049Z,9.23
2024-02-29T09:54:03.000Z,9.56
2024-02-29T09:56:30.726Z,9.61
2024-02-29T09:59:01.379Z,9.74
2024-02-29T10:01:31.771Z,10.04
2024-02-29T10:04:00.418Z,9.86
2024-02-29T10:06:29.552Z,9.79
2024-02-29T10:08:57.240Z,9.88
2024-02-29T10:11:29.139Z,9.96
2024-02-29T10:13:58.375Z,9.97
2024-02-29T10:16:28.602Z,9.86
2024-02-29T10:18:56.798Z,9.86
2024-02-29T10:21:24.760Z,9.97
2024-02-29T10:23:58.233Z,10.14
2024-02-29T10:26:25.883Z,10.10
2024-02-29T10:28:53.582Z,10.16
2024-02-29T10:31:21.436Z,10.20
2024-02-29T10:33:49.842Z,10.44
2024-02-29T10:36:17.598Z,10.57
2024-02-29T10:38:45.264Z,10.76
2024-02-29T10:41:16.836Z,10.59
2024-02-29T10:43:46.873Z,10.51
2024-02-29T10:46:17.312Z,10.70
2024-02-29T10:48:50.775Z,10.42
2024-02-29T10:51:27.147Z,10.46
2024-02-29T10:54:07.727Z,10.59
2024-02-29T10:56:38.017Z,10.83
2024-02-29T10:59:08.302Z,10.96
2024-02-29T11:01:37.665Z,10.85
2024-02-29T11:04:07.012Z,11.08
2024-02-29T11:06:39.830Z,10.88
2024-02-29T11:09:10.305Z,11.13
2024-02-29T11:11:39.817Z,10.64
2024-02-29T11:14:12.062Z,10.95
2024-02-29T11:16:41.151Z,10.90
2024-02-29T11:19:12.491Z,10.90
2024-02-29T11:21:40.634Z,10.56
2024-02-29T11:24:09.669Z,10.78
2024-02-29T11:26:39.673Z,10.75
2024-02-29T11:29:14.108Z,10.77
2024-02-29T11:31:46.010Z,10.66
2024-02-29T11:34:13.722Z,10.96
2024-02-29T11:36:42.924Z,10.88
2024-02-29T11:39:11.704Z,10.91
2024-02-29T11:41:40.793Z,10.66
2024-02-29T11:44:09.087Z,10.62
2024-02-29T11:46:36.771Z,10.73
2024-02-29T11:49:04.625Z,10.95
2024-02-29T11:51:32.889Z,10.61
2024-02-29T11:54:00.670Z,10.81
2024-02-29T11:56:28.425Z,10.68
2024-02-29T11:58:57.412Z,10.74
2024-02-29T12:01:25.164Z,11.02
2024-02-29T12:03:53.262Z,11.09
2024-02-29T12:06:21.766Z,11.12
2024-02-29T12:08:50.432Z,10.85
2024-02-29T12:11:18.718Z,10.91
2024-02-29T12:13:46.614Z,11.03
2024-02-29T12:16:16.229Z,10.92
2024-02-29T12:18:44.740Z,10.93
2024-02-29T12:21:12.666Z,11.13
2024-02-29T12:23:41.515Z,10.87
2024-02-29T12:26:11.029Z,10.76
2024-02-29T12:28:39.563Z,10.98
2024-02-29T12:31:08.600Z,11.19
2024-02-29T12:33:40.050Z,11.16
2024-02-29T12:36:08.705Z,11.19
2024-02-29T12:38:36.762Z,11.18
2024-02-29T12:41:06.498Z,11.27
2024-02-29T12:43:34.605Z,11.60
2024-02-29T12:46:03.844Z,11.55
2024-02-29T12:48:31.866Z,11.17
2024-02-29T12:51:00.911Z,11.29
2024-02-29T12:53:28.688Z,11.12
2024-02-29T12:55:56.382Z,11.30
2024-02-29T12:58:24.168Z,11.38
2024-02-29T13:00:51.981Z,11.43
2024-02-29T13:03:20.094Z,11.38
2024-02-29T13:05:47.835Z,11.43
2024-02-29T13:08:16.855Z,11.30
2024-02-29T13:10:44.526Z,11.24
2024-02-29T13:13:12.701Z,11.30
2024-02-29T13:15:40.478Z,11.13
2024-02-29T13:18:08.351Z,11.34
2024-02-29T13:20:36.428Z,11.22
2024-02-29T13:23:04.082Z,11.14
2024-02-29T13:25:34.302Z,11.25
2024-02-29T13:28:02.444Z,11.27
2024-02-29T13:30:30.161Z,11.18
2024-02-29T13:32:57.891Z,11.05
2024-02-29T13:35:25.643Z,10.96
2024-02-29T13:37:53.304Z,11.20
2024-02-29T13:40:21.039Z,11.09
2024-02-29T13:42:50.265Z,11.13
2024-02-29T13:45:17.934Z,10.97
2024-02-29T13:47:50.253Z,10.98
2024-02-29T13:50:19.864Z,11.01
2024-02-29T13:52:47.642Z,11.03
2024-02-29T13:55:15.862Z,11.11
2024-02-29T13:57:43.977Z,11.18
2024-02-29T14:00:13.575Z,11.17
2024-02-29T14:02:41.256Z,11.22
2024-02-29T14:05:09.576Z,11.32
2024-02-29T14:07:37.304Z,11.31
2024-02-29T14:10:06.049Z,11.30
2024-02-29T14:12:34.588Z,11.31
2024-02-29T14:15:02.335Z,11.37
2024-02-29T14:17:31.447Z,11.42
2024-02-29T14:19:59.193Z,11.27
2024-02-29T14:22:26.908Z,11.36
2024-02-29T14:24:54.849Z,11.33
2024-02-29T14:27:24.026Z,11.29
2024-02-29T14:29:51.695Z,11.27
2024-02-29T14:32:19.419Z,11.26
2024-02-29T14:34:48.407Z,11.25
2024-02-29T14:37:16.532Z,11.22
2024-02-29T14:39:44.526Z,11.38
2024-02-29T14:42:12.339Z,11.48
2024-02-29T14:44:40.039Z,11.49
2024-02-29T14:47:08.628Z,11.58
2024-02-29T14:49:36.387Z,11.47
2024-02-29T14:52:07.120Z,11.58
2024-02-29T14:54:35.315Z,11.66
2024-02-29T14:57:03.294Z,11.52
2024-02-29T14:59:30.973Z,11.44
2024-02-29T15:01:58.768Z,11.42
2024-02-29T15:04:26.581Z,11.14
2024-02-29T15:06:54.435Z,11.18
2024-02-29T15:09:23.659Z,11.11
2024-02-29T15:11:51.292Z,11.21
2024-02-29T15:14:19.051Z,11.26
2024-02-29T15:16:46.733Z,11.18
2024-02-29T15:19:14.695Z,11.17
2024-02-29T15:21:42.464Z,11.24
2024-02-29T15:24:10.430Z,11.21
2024-02-29T15:26:40.952Z,11.24
2024-02-29T15:29:08.889Z,11.02
2024-02-29T15:31:38.722Z,11.03
2024-02-29T15:34:06.488Z,11.09
2024-02-29T15:36:34.504Z,11.04
2024-02-29T15:39:03.321Z,11.06
2024-02-29T15:41:30.995Z,11.07
2024-02-29T15:43:59.983Z,11.12
2024-02-29T15:46:28.005Z,11.06
2024-02-29T15:48:55.872Z,11.03
2024-02-29T15:51:25.070Z,11.00
2024-02-29T15:53:52.792Z,11.01
2024-02-29T15:56:20.547Z,10.96
2024-02-29T15:58:48.330Z,10.98
2024-02-29T16:01:17.905Z,10.95
2024-02-29T16:03:45.622Z,10.85
2024-02-29T16:06:13.808Z,10.80
2024-02-29T16:08:41.721Z,10.78
2024-02-29T16:11:09.928Z,10.87
2024-02-29T16:13:37.635Z,10.80
2024-02-29T16:16:06.153Z,10.75
2024-02-29T16:18:35.279Z,10.82
2024-02-29T16:21:06.867Z,10.72
2024-02-29T16:23:35.731Z,10.72
2024-02-29T16:26:04.498Z,10.77
2024-02-29T16:28:32.420Z,10.75
2024-02-29T16:31:00.124Z,10.63
2024-02-29T16:33:27.802Z,10.63
2024-02-29T16:35:56.967Z,10.62
2024-02-29T16:38:25.114Z,10.61
2024-02-29T16:40:55.568Z,10.56
2024-02-29T16:43:23.720Z,10.59
2024-02-29T16:45:51.707Z,10.58
2024-02-29T16:48:19.512Z,10.57
2024-02-29T16:50:47.433Z,10.51
2024-02-29T16:53:16.538Z,10.40
2024-02-29T16:55:44.231Z,10.42
2024-02-29T16:58:12.242Z,10.46
2024-02-29T17:00:40.128Z,10.37
2024-02-29T17:03:08.030Z,10.36
2024-02-29T17:05:35.725Z,10.38
2024-02-29T17:08:03.596Z,10.38
2024-02-29T17:10:32.871Z,10.33
2024-02-29T17:13:01.044Z,10.29
2024-02-29T17:15:28.789Z,10.32
2024-02-29T17:17:56.580Z,10.28
2024-02-29T17:20:24.417Z,10.30
2024-02-29T17:22:52.080Z,10.31
2024-02-29T17:25:19.833Z,10.22
2024-02-29T17:27:48.968Z,10.21
2024-02-29T17:30:16.876Z,10.17
2024-02-29T17:32:44.858Z,10.13
2024-02-29T17:35:12.557Z,10.14
2024-02-29T17:37:40.279Z,10.04
2024-02-29T17:40:09.294Z,10.02
2024-02-29T17:42:37.045Z,10.01
2024-02-29T17:45:06.812Z,9.98
2024-02-29T17:47:34.567Z,9.99
2024-02-29T17:50:02.238Z,9.97
2024-02-29T17:52:29.900Z,9.98
2024-02-29T17:54:59.122Z,9.92
2024-02-29T17:57:26.884Z,9.83
2024-02-29T17:59:54.559Z,9.94
2024-02-29T18:02:23.879Z,9.89
2024-02-29T18:04:52.204Z,9.88
2024-02-29T18:07:20.143Z,9.96
2024-02-29T18:09:48.147Z,9.97
2024-02-29T18:12:15.858Z,9.98
2024-02-29T18:14:43.640Z,9.91
2024-02-29T18:17:11.306Z,9.87
2024-02-29T18:19:40.623Z,9.92
2024-02-29T18:22:08.393Z,9.90
2024-02-29T18:24:39.563Z,9.84
2024-02-29T18:27:07.908Z,9.80
2024-02-29T18:29:35.643Z,9.82
2024-02-29T18:32:03.358Z,9.78
2024-02-29T18:34:31.146Z,9.84
2024-02-29T18:37:00.233Z,9.78
2024-02-29T18:39:28.047Z,9.79
2024-02-29T18:41:56.496Z,9.77
2024-02-29T18:44:24.370Z,9.67
2024-02-29T18:46:52.214Z,9.71
2024-02-29T18:49:20.896Z,9.65
2024-02-29T18:51:50.138Z,9.67
2024-02-29T18:54:19.908Z,9.62
2024-02-29T18:56:48.761Z,9.61
2024-02-29T18:59:16.579Z,9.55
2024-02-29T19:01:45.251Z,9.48
2024-02-29T19:04:13.499Z,9.51
2024-02-29T19:06:41.192Z,9.50
2024-02-29T19:09:08.996Z,9.38
2024-02-29T19:11:40.938Z,9.33
2024-02-29T19:14:08.677Z,9.40
2024-02-29T19:16:40.261Z,9.37
2024-02-29T19:19:08.144Z,9.31
2024-02-29T19:21:37.542Z,9.29
2024-02-29T19:24:05.904Z,9.26
2024-02-29T19:26:33.621Z,9.21
2024-02-29T19:29:02.633Z,9.14
2024-02-29T19:31:30.379Z,9.10
2024-02-29T19:33:58.180Z,9.10
2024-02-29T19:36:27.114Z,9.05
2024-02-29T19:38:55.054Z,9.05
2024-02-29T19:41:22.826Z,9.04
2024-02-29T19:43:50.586Z,9.02
2024-02-29T19:46:19.846Z,8.99
2024-02-29T19:48:47.681Z,8.98
2024-02-29T19:51:15.615Z,8.89
2024-02-29T19:53:44.685Z,8.68
2024-02-29T19:56:12.487Z,8.83
2024-02-29T19:58:40.177Z,8.82
2024-02-29T20:01:08.062Z,8.76
2024-02-29T20:03:37.272Z,8.77
2024-02-29T20:06:05.442Z,8.77
2024-02-29T20:08:33.124Z,8.75
2024-02-29T20:11:00.885Z,8.71
2024-02-29T20:13:28.702Z,8.77
2024-02-29T20:15:56.405Z,8.73
2024-02-29T20:18:24.771Z,8.63
2024-02-29T20:20:53.841Z,8.67
2024-02-29T20:23:22.207Z,8.72
2024-02-29T20:25:51.365Z,8.71
2024-02-29T20:28:19.729Z,8.68
2024-02-29T20:30:48.267Z,8.62
2024-02-29T20:33:16.460Z,8.64
2024-02-29T20:35:44.350Z,8.48
2024-02-29T20:38:14.589Z,8.66
2024-02-29T20:40:42.400Z,8.61
2024-02-29T20:43:10.141Z,8.62
2024-02-29T20:45:37.823Z,8.61
2024-02-29T20:48:06.402Z,8.58
2024-02-29T20:50:34.145Z,8.58
2024-02-29T20:53:02.071Z,8.54
2024-02-29T20:55:31.297Z,8.60
2024-02-29T20:57:59.106Z,8.59
2024-02-29T21:00:26.788Z,8.13
2024-02-29T21:02:54.500Z,8.64
2024-02-29T21:05:22.179Z,8.44
2024-02-29T21:07:49.906Z,8.63
2024-02-29T21:10:18.841Z,8.58
2024-02-29T21:12:48.128Z,8.51
2024-02-29T21:15:16.615Z,8.46
2024-02-29T21:17:46.222Z,8.45
2024-02-29T21:20:14.152Z,8.45
2024-02-29T21:22:45.038Z,8.38
2024-02-29T21:25:13.140Z,8.30
2024-02-29T21:27:40.907Z,8.32
2024-02-29T21:30:11.683Z,8.30
2024-02-29T21:32:39.876Z,8.24
2024-02-29T21:35:08.260Z,8.21
2024-02-29T21:37:37.249Z,8.19
2024-02-29T21:40:06.373Z,8.19
2024-02-29T21:42:34.199Z,8.11
2024-02-29T21:45:01.909Z,8.10
2024-02-29T21:47:31.031Z,8.04
2024-02-29T21:49:58.740Z,8.13
2024-02-29T21:52:26.590Z,8.08
2024-02-29T21:54:54.365Z,8.12
2024-02-29T21:57:22.020Z,8.15
2024-02-29T21:59:49.765Z,8.09
2024-02-29T22:02:17.457Z,8.07
2024-02-29T22:04:46.479Z,8.12
2024-02-29T22:07:14.285Z,8.12
2024-02-29T22:09:42.000Z,8.26
2024-02-29T22:12:10.647Z,8.12
2024-02-29T22:14:38.397Z,8.24
2024-02-29T22:17:06.106Z,8.26
2024-02-29T22:19:33.826Z,8.27
2024-02-29T22:22:02.920Z,8.18
2024-02-29T22:24:30.618Z,8.16
2024-02-29T22:26:58.744Z,8.15
2024-02-29T22:29:25.493Z,8.13
2024-02-29T22:31:53.243Z,8.16
2024-02-29T22:34:20.945Z,8.06
2024-02-29T22:36:48.678Z,7.99
2024-02-29T22:39:17.743Z,7.97
2024-02-29T22:41:52.971Z,7.94
2024-02-29T22:44:25.083Z,7.93
2024-02-29T22:46:52.767Z,7.87
2024-02-29T22:49:20.493Z,7.92
2024-02-29T22:51:48.200Z,7.95
2024-02-29T22:54:18.235Z,7.89
2024-02-29T22:56:45.904Z,7.70
2024-02-29T22:59:13.727Z,7.76
2024-02-29T23:01:46.315Z,7.83
2024-02-29T23:04:14.580Z,7.92
2024-02-29T23:06:42.562Z,7.87
2024-02-29T23:09:10.208Z,7.94
2024-02-29T23:11:39.840Z,7.73
2024-02-29T23:14:07.506Z,8.00
2024-02-29T23:16:35.337Z,7.99
2024-02-29T23:19:03.106Z,7.98
2024-02-29T23:21:30.904Z,7.97
2024-02-29T23:23:58.535Z,8.00
2024-02-29T23:26:26.272Z,8.03
2024-02-29T23:28:55.287Z,7.96
2024-02-29T23:31:23.146Z,7.99
2024-02-29T23:33:52.064Z,7.97
2024-02-29T23:36:19.768Z,8.02
2024-02-29T23:38:47.420Z,8.07
2024-02-29T23:41:15.045Z,8.08
2024-02-29T23:43:42.721Z,8.11
2024-02-29T23:46:11.733Z,8.07
2024-02-29T23:48:39.858Z,8.05
2024-02-29T23:51:07.556Z,8.01
2024-02-29T23:53:35.211Z,8.05
2024-02-29T23:56:02.975Z,8.03
2024-02-29T23:58:30.727Z,8.03
